sensor_id;sensor_type;location;lat;lon;timestamp;temperature;humidity
43607;DHT22;29197;44.788;10.366;2022-11-20T00:00:44;11.70;99.90
43607;DHT22;29197;44.788;10.366;2022-11-20T00:03:33;11.60;99.90
43607;DHT22;29197;44.788;10.366;2022-11-20T00:06:24;11.50;99.90
43607;DHT22;29197;44.788;10.366;2022-11-20T00:09:13;11.50;99.90
43607;DHT22;29197;44.788;10.366;2022-11-20T00:12:03;11.50;99.90
43607;DHT22;29197;44.788;10.366;2022-11-20T00:14:54;11.50;99.90
43607;DHT22;29197;44.788;10.366;2022-11-20T00:17:44;11.60;99.90
43607;DHT22;29197;44.788;10.366;2022-11-20T00:20:33;11.60;99.90
43607;DHT22;29197;44.788;10.366;2022-11-20T00:23:23;11.60;99.90
43607;DHT22;29197;44.788;10.366;2022-11-20T00:26:14;11.70;99.90
43607;DHT22;29197;44.788;10.366;2022-11-20T00:29:04;11.20;99.90
43607;DHT22;29197;44.788;10.366;2022-11-20T00:31:54;11.70;99.90
43607;DHT22;29197;44.788;10.366;2022-11-20T00:34:43;11.70;99.90
43607;DHT22;29197;44.788;10.366;2022-11-20T00:37:33;11.70;99.90
43607;DHT22;29197;44.788;10.366;2022-11-20T00:40:22;11.80;99.90
43607;DHT22;29197;44.788;10.366;2022-11-20T00:43:12;11.80;99.90
43607;DHT22;29197;44.788;10.366;2022-11-20T00:46:04;11.60;99.90
43607;DHT22;29197;44.788;10.366;2022-11-20T00:48:55;11.40;99.90
43607;DHT22;29197;44.788;10.366;2022-11-20T00:51:44;11.40;99.90
43607;DHT22;29197;44.788;10.366;2022-11-20T00:54:33;11.50;99.90
43607;DHT22;29197;44.788;10.366;2022-11-20T00:57:22;11.50;99.90
43607;DHT22;29197;44.788;10.366;2022-11-20T01:00:12;11.60;99.90
43607;DHT22;29197;44.788;10.366;2022-11-20T01:03:01;11.60;99.90
43607;DHT22;29197;44.788;10.366;2022-11-20T01:05:52;11.70;99.90
43607;DHT22;29197;44.788;10.366;2022-11-20T01:08:41;11.70;99.90
43607;DHT22;29197;44.788;10.366;2022-11-20T01:11:32;11.60;99.90
43607;DHT22;29197;44.788;10.366;2022-11-20T01:14:21;11.70;99.90
43607;DHT22;29197;44.788;10.366;2022-11-20T01:17:11;11.70;99.90
43607;DHT22;29197;44.788;10.366;2022-11-20T01:20:01;11.60;99.90
43607;DHT22;29197;44.788;10.366;2022-11-20T01:22:52;11.70;99.90
43607;DHT22;29197;44.788;10.366;2022-11-20T01:25:41;11.60;99.90
43607;DHT22;29197;44.788;10.366;2022-11-20T01:28:30;11.60;99.90
43607;DHT22;29197;44.788;10.366;2022-11-20T01:31:21;11.60;99.90
43607;DHT22;29197;44.788;10.366;2022-11-20T01:34:12;11.60;99.90
43607;DHT22;29197;44.788;10.366;2022-11-20T01:37:01;11.50;99.90
43607;DHT22;29197;44.788;10.366;2022-11-20T01:39:52;11.50;99.90
43607;DHT22;29197;44.788;10.366;2022-11-20T01:42:46;11.50;99.90
43607;DHT22;29197;44.788;10.366;2022-11-20T01:49:13;11.30;99.90
43607;DHT22;29197;44.788;10.366;2022-11-20T01:52:05;11.30;99.90
43607;DHT22;29197;44.788;10.366;2022-11-20T01:55:01;11.20;99.90
43607;DHT22;29197;44.788;10.366;2022-11-20T01:57:52;11.10;99.90
43607;DHT22;29197;44.788;10.366;2022-11-20T02:00:41;11.10;99.90
43607;DHT22;29197;44.788;10.366;2022-11-20T02:03:32;10.80;99.90
43607;DHT22;29197;44.788;10.366;2022-11-20T02:06:24;10.70;99.90
43607;DHT22;29197;44.788;10.366;2022-11-20T02:09:14;10.80;99.90
43607;DHT22;29197;44.788;10.366;2022-11-20T02:12:05;10.90;99.90
43607;DHT22;29197;44.788;10.366;2022-11-20T02:15:15;11.00;99.90
43607;DHT22;29197;44.788;10.366;2022-11-20T02:18:04;11.10;99.90
43607;DHT22;29197;44.788;10.366;2022-11-20T02:20:57;10.90;99.90
43607;DHT22;29197;44.788;10.366;2022-11-20T02:24:02;10.70;99.90
43607;DHT22;29197;44.788;10.366;2022-11-20T02:26:54;10.80;99.90
43607;DHT22;29197;44.788;10.366;2022-11-20T02:29:48;10.90;99.90
43607;DHT22;29197;44.788;10.366;2022-11-20T02:32:38;11.00;99.90
43607;DHT22;29197;44.788;10.366;2022-11-20T02:35:42;11.00;99.90
43607;DHT22;29197;44.788;10.366;2022-11-20T02:38:32;11.10;99.90
43607;DHT22;29197;44.788;10.366;2022-11-20T02:41:30;11.20;99.90
43607;DHT22;29197;44.788;10.366;2022-11-20T02:44:19;11.20;99.90
43607;DHT22;29197;44.788;10.366;2022-11-20T02:47:08;11.20;99.90
43607;DHT22;29197;44.788;10.366;2022-11-20T02:49:58;11.20;99.90
43607;DHT22;29197;44.788;10.366;2022-11-20T02:52:47;11.20;99.90
43607;DHT22;29197;44.788;10.366;2022-11-20T02:55:36;11.20;99.90
43607;DHT22;29197;44.788;10.366;2022-11-20T02:58:27;11.20;99.90
43607;DHT22;29197;44.788;10.366;2022-11-20T03:01:16;11.20;99.90
43607;DHT22;29197;44.788;10.366;2022-11-20T03:04:05;11.20;99.90
43607;DHT22;29197;44.788;10.366;2022-11-20T03:06:55;11.20;99.90
43607;DHT22;29197;44.788;10.366;2022-11-20T03:09:44;11.10;99.90
43607;DHT22;29197;44.788;10.366;2022-11-20T03:12:33;11.10;99.90
43607;DHT22;29197;44.788;10.366;2022-11-20T03:15:24;11.10;99.90
43607;DHT22;29197;44.788;10.366;2022-11-20T03:18:13;11.10;99.90
43607;DHT22;29197;44.788;10.366;2022-11-20T03:21:02;11.10;99.90
43607;DHT22;29197;44.788;10.366;2022-11-20T03:23:52;11.00;99.90
43607;DHT22;29197;44.788;10.366;2022-11-20T03:26:41;11.00;99.90
43607;DHT22;29197;44.788;10.366;2022-11-20T03:29:30;10.90;99.90
43607;DHT22;29197;44.788;10.366;2022-11-20T03:32:20;10.80;99.90
43607;DHT22;29197;44.788;10.366;2022-11-20T03:35:09;10.80;99.90
43607;DHT22;29197;44.788;10.366;2022-11-20T03:37:58;10.70;99.90
43607;DHT22;29197;44.788;10.366;2022-11-20T03:40:48;10.70;99.90
43607;DHT22;29197;44.788;10.366;2022-11-20T03:43:37;10.70;99.90
43607;DHT22;29197;44.788;10.366;2022-11-20T03:46:29;10.70;99.90
43607;DHT22;29197;44.788;10.366;2022-11-20T03:49:19;10.70;99.90
43607;DHT22;29197;44.788;10.366;2022-11-20T03:52:09;10.70;99.90
43607;DHT22;29197;44.788;10.366;2022-11-20T03:54:59;10.70;99.90
43607;DHT22;29197;44.788;10.366;2022-11-20T03:57:48;10.70;99.90
43607;DHT22;29197;44.788;10.366;2022-11-20T04:00:37;10.80;99.90
43607;DHT22;29197;44.788;10.366;2022-11-20T04:03:26;10.80;99.90
43607;DHT22;29197;44.788;10.366;2022-11-20T04:06:19;10.80;99.90
43607;DHT22;29197;44.788;10.366;2022-11-20T04:09:09;10.80;99.90
43607;DHT22;29197;44.788;10.366;2022-11-20T04:11:57;10.80;99.90
43607;DHT22;29197;44.788;10.366;2022-11-20T04:14:47;10.80;99.90
43607;DHT22;29197;44.788;10.366;2022-11-20T04:17:36;10.90;99.90
43607;DHT22;29197;44.788;10.366;2022-11-20T04:20:26;10.90;99.90
43607;DHT22;29197;44.788;10.366;2022-11-20T04:23:16;10.90;99.90
43607;DHT22;29197;44.788;10.366;2022-11-20T04:26:11;10.90;99.90
43607;DHT22;29197;44.788;10.366;2022-11-20T04:29:01;10.80;99.90
43607;DHT22;29197;44.788;10.366;2022-11-20T04:31:50;10.80;99.90
43607;DHT22;29197;44.788;10.366;2022-11-20T04:34:40;10.80;99.90
43607;DHT22;29197;44.788;10.366;2022-11-20T04:37:29;10.80;99.90
43607;DHT22;29197;44.788;10.366;2022-11-20T06:55:47;9.80;99.90
43607;DHT22;29197;44.788;10.366;2022-11-20T06:58:36;9.80;99.90
43607;DHT22;29197;44.788;10.366;2022-11-20T07:01:25;9.80;99.90
43607;DHT22;29197;44.788;10.366;2022-11-20T07:04:15;9.90;99.90
43607;DHT22;29197;44.788;10.366;2022-11-20T07:07:04;9.90;99.90
43607;DHT22;29197;44.788;10.366;2022-11-20T07:09:54;9.90;99.90
43607;DHT22;29197;44.788;10.366;2022-11-20T07:12:49;10.00;99.90
43607;DHT22;29197;44.788;10.366;2022-11-20T07:15:38;10.00;99.90
43607;DHT22;29197;44.788;10.366;2022-11-20T07:18:27;10.00;99.90
43607;DHT22;29197;44.788;10.366;2022-11-20T07:21:16;10.10;99.90
43607;DHT22;29197;44.788;10.366;2022-11-20T07:24:04;10.20;99.90
43607;DHT22;29197;44.788;10.366;2022-11-20T07:26:54;10.20;99.90
43607;DHT22;29197;44.788;10.366;2022-11-20T07:29:44;10.30;99.90
43607;DHT22;29197;44.788;10.366;2022-11-20T07:32:33;10.30;99.90
43607;DHT22;29197;44.788;10.366;2022-11-20T07:35:22;10.40;99.90
43607;DHT22;29197;44.788;10.366;2022-11-20T07:38:12;10.50;99.90
43607;DHT22;29197;44.788;10.366;2022-11-20T07:41:02;10.60;99.90
43607;DHT22;29197;44.788;10.366;2022-11-20T07:43:51;10.70;99.90
43607;DHT22;29197;44.788;10.366;2022-11-20T07:46:42;10.90;99.90
43607;DHT22;29197;44.788;10.366;2022-11-20T07:49:32;11.00;99.90
43607;DHT22;29197;44.788;10.366;2022-11-20T07:52:21;11.00;99.90
43607;DHT22;29197;44.788;10.366;2022-11-20T07:55:11;11.10;99.90
43607;DHT22;29197;44.788;10.366;2022-11-20T07:58:00;11.20;99.90
43607;DHT22;29197;44.788;10.366;2022-11-20T08:00:49;11.30;99.90
43607;DHT22;29197;44.788;10.366;2022-11-20T08:03:40;11.30;99.90
43607;DHT22;29197;44.788;10.366;2022-11-20T08:06:30;11.40;99.90
43607;DHT22;29197;44.788;10.366;2022-11-20T08:09:19;11.40;99.90
43607;DHT22;29197;44.788;10.366;2022-11-20T08:12:10;11.50;99.90
43607;DHT22;29197;44.788;10.366;2022-11-20T08:15:22;11.60;99.90
43607;DHT22;29197;44.788;10.366;2022-11-20T08:18:11;11.50;99.90
43607;DHT22;29197;44.788;10.366;2022-11-20T08:21:19;11.40;99.90
43607;DHT22;29197;44.788;10.366;2022-11-20T08:24:09;11.30;99.90
43607;DHT22;29197;44.788;10.366;2022-11-20T08:26:58;11.10;99.90
43607;DHT22;29197;44.788;10.366;2022-11-20T08:29:48;10.80;99.90
43607;DHT22;29197;44.788;10.366;2022-11-20T08:32:37;10.40;99.90
43607;DHT22;29197;44.788;10.366;2022-11-20T08:35:26;10.10;99.90
43607;DHT22;29197;44.788;10.366;2022-11-20T08:38:17;9.90;99.90
43607;DHT22;29197;44.788;10.366;2022-11-20T08:41:06;9.80;99.90
43607;DHT22;29197;44.788;10.366;2022-11-20T08:44:09;9.90;99.90
43607;DHT22;29197;44.788;10.366;2022-11-20T08:46:58;10.10;99.90
43607;DHT22;29197;44.788;10.366;2022-11-20T08:49:47;10.30;99.90
43607;DHT22;29197;44.788;10.366;2022-11-20T08:52:36;10.40;99.90
43607;DHT22;29197;44.788;10.366;2022-11-20T08:55:27;10.90;99.90
43607;DHT22;29197;44.788;10.366;2022-11-20T08:58:16;10.80;99.90
43607;DHT22;29197;44.788;10.366;2022-11-20T09:01:04;10.80;99.90
43607;DHT22;29197;44.788;10.366;2022-11-20T09:03:55;10.90;99.90
43607;DHT22;29197;44.788;10.366;2022-11-20T09:06:44;10.90;99.90
43607;DHT22;29197;44.788;10.366;2022-11-20T09:09:33;10.60;99.90
43607;DHT22;29197;44.788;10.366;2022-11-20T09:12:23;10.60;99.90
43607;DHT22;29197;44.788;10.366;2022-11-20T09:15:13;10.80;99.90
43607;DHT22;29197;44.788;10.366;2022-11-20T09:18:03;10.90;99.90
43607;DHT22;29197;44.788;10.366;2022-11-20T09:20:56;11.10;99.90
43607;DHT22;29197;44.788;10.366;2022-11-20T09:23:46;11.30;99.90
43607;DHT22;29197;44.788;10.366;2022-11-20T09:26:34;11.50;99.90
43607;DHT22;29197;44.788;10.366;2022-11-20T09:29:25;11.50;99.90
43607;DHT22;29197;44.788;10.366;2022-11-20T09:32:14;11.30;99.90
43607;DHT22;29197;44.788;10.366;2022-11-20T09:35:03;11.40;99.90
43607;DHT22;29197;44.788;10.366;2022-11-20T10:18:54;13.40;99.90
43607;DHT22;29197;44.788;10.366;2022-11-20T10:21:57;13.70;99.90
43607;DHT22;29197;44.788;10.366;2022-11-20T10:24:56;13.90;99.90
43607;DHT22;29197;44.788;10.366;2022-11-20T10:27:59;14.10;99.90
43607;DHT22;29197;44.788;10.366;2022-11-20T10:30:59;14.20;99.90
43607;DHT22;29197;44.788;10.366;2022-11-20T10:33:48;14.30;99.90
43607;DHT22;29197;44.788;10.366;2022-11-20T10:37:02;14.40;99.90
43607;DHT22;29197;44.788;10.366;2022-11-20T10:39:59;14.40;99.90
43607;DHT22;29197;44.788;10.366;2022-11-20T10:42:53;14.50;99.90
43607;DHT22;29197;44.788;10.366;2022-11-20T10:45:49;14.60;99.90
43607;DHT22;29197;44.788;10.366;2022-11-20T10:48:41;14.70;99.90
43607;DHT22;29197;44.788;10.366;2022-11-20T10:51:35;14.80;99.90
43607;DHT22;29197;44.788;10.366;2022-11-20T10:54:33;14.80;99.90
43607;DHT22;29197;44.788;10.366;2022-11-20T11:00:21;15.00;99.90
43607;DHT22;29197;44.788;10.366;2022-11-20T11:03:21;15.00;99.90
43607;DHT22;29197;44.788;10.366;2022-11-20T11:06:17;15.00;99.90
43607;DHT22;29197;44.788;10.366;2022-11-20T11:09:13;15.00;99.90
43607;DHT22;29197;44.788;10.366;2022-11-20T11:12:08;15.10;99.90
43607;DHT22;29197;44.788;10.366;2022-11-20T11:14:58;15.10;99.90
43607;DHT22;29197;44.788;10.366;2022-11-20T11:17:47;15.20;99.90
43607;DHT22;29197;44.788;10.366;2022-11-20T11:20:37;15.30;99.90
43607;DHT22;29197;44.788;10.366;2022-11-20T11:23:32;15.30;99.90
43607;DHT22;29197;44.788;10.366;2022-11-20T11:26:23;15.40;99.90
43607;DHT22;29197;44.788;10.366;2022-11-20T11:29:18;15.50;99.90
43607;DHT22;29197;44.788;10.366;2022-11-20T11:32:11;15.50;99.90
43607;DHT22;29197;44.788;10.366;2022-11-20T19:20:32;10.10;99.90
43607;DHT22;29197;44.788;10.366;2022-11-20T19:23:21;9.90;99.90
43607;DHT22;29197;44.788;10.366;2022-11-20T19:26:10;9.70;99.90
43607;DHT22;29197;44.788;10.366;2022-11-20T19:29:01;9.90;99.90
43607;DHT22;29197;44.788;10.366;2022-11-20T19:31:50;9.90;99.90
43607;DHT22;29197;44.788;10.366;2022-11-20T19:34:39;9.90;99.90
43607;DHT22;29197;44.788;10.366;2022-11-20T19:37:31;9.90;99.90
43607;DHT22;29197;44.788;10.366;2022-11-20T19:40:21;9.70;99.90
43607;DHT22;29197;44.788;10.366;2022-11-20T19:43:09;9.50;99.90
43607;DHT22;29197;44.788;10.366;2022-11-20T19:46:01;9.50;99.90
43607;DHT22;29197;44.788;10.366;2022-11-20T19:48:50;9.60;99.90
43607;DHT22;29197;44.788;10.366;2022-11-20T19:51:44;9.60;99.90
43607;DHT22;29197;44.788;10.366;2022-11-20T19:54:34;9.60;99.90
43607;DHT22;29197;44.788;10.366;2022-11-20T19:57:23;9.70;99.90
43607;DHT22;29197;44.788;10.366;2022-11-20T20:00:13;9.90;99.90
43607;DHT22;29197;44.788;10.366;2022-11-20T20:03:16;10.00;99.90
43607;DHT22;29197;44.788;10.366;2022-11-20T20:06:06;10.00;99.90
43607;DHT22;29197;44.788;10.366;2022-11-20T20:08:57;10.00;99.90
43607;DHT22;29197;44.788;10.366;2022-11-20T20:11:47;10.10;99.90
43607;DHT22;29197;44.788;10.366;2022-11-20T20:14:36;10.30;99.90
43607;DHT22;29197;44.788;10.366;2022-11-20T20:17:24;10.30;99.90
43607;DHT22;29197;44.788;10.366;2022-11-20T20:20:16;10.40;99.90
43607;DHT22;29197;44.788;10.366;2022-11-20T20:23:05;10.40;99.90
43607;DHT22;29197;44.788;10.366;2022-11-20T20:25:55;10.50;99.90
43607;DHT22;29197;44.788;10.366;2022-11-20T20:28:44;10.50;99.90
43607;DHT22;29197;44.788;10.366;2022-11-20T20:31:34;10.40;99.90
43607;DHT22;29197;44.788;10.366;2022-11-20T20:34:23;10.20;99.90
43607;DHT22;29197;44.788;10.366;2022-11-20T20:37:17;10.00;99.90
43607;DHT22;29197;44.788;10.366;2022-11-20T20:40:08;10.10;99.90
43607;DHT22;29197;44.788;10.366;2022-11-20T20:43:01;10.20;99.90
43607;DHT22;29197;44.788;10.366;2022-11-20T20:45:50;10.30;99.90
43607;DHT22;29197;44.788;10.366;2022-11-20T20:48:40;10.30;99.90
43607;DHT22;29197;44.788;10.366;2022-11-20T20:51:29;10.30;99.90
43607;DHT22;29197;44.788;10.366;2022-11-20T20:54:21;10.30;99.90
43607;DHT22;29197;44.788;10.366;2022-11-20T20:57:10;10.30;99.90
43607;DHT22;29197;44.788;10.366;2022-11-20T21:00:00;10.20;99.90
43607;DHT22;29197;44.788;10.366;2022-11-20T21:02:49;10.10;99.90
43607;DHT22;29197;44.788;10.366;2022-11-20T21:05:38;10.00;99.90
43607;DHT22;29197;44.788;10.366;2022-11-20T21:08:27;10.00;99.90
43607;DHT22;29197;44.788;10.366;2022-11-20T21:11:19;10.00;99.90
43607;DHT22;29197;44.788;10.366;2022-11-20T21:14:08;9.90;99.90
43607;DHT22;29197;44.788;10.366;2022-11-20T21:16:57;9.90;99.90
43607;DHT22;29197;44.788;10.366;2022-11-20T21:19:46;9.70;99.90
43607;DHT22;29197;44.788;10.366;2022-11-20T21:22:35;9.40;99.90
43607;DHT22;29197;44.788;10.366;2022-11-20T21:25:23;9.10;99.90
43607;DHT22;29197;44.788;10.366;2022-11-20T21:28:14;9.20;99.90
43607;DHT22;29197;44.788;10.366;2022-11-20T21:31:06;9.20;99.90
43607;DHT22;29197;44.788;10.366;2022-11-20T21:33:56;9.30;99.90
43607;DHT22;29197;44.788;10.366;2022-11-20T21:36:46;9.20;99.90
43607;DHT22;29197;44.788;10.366;2022-11-20T21:39:35;9.30;99.90
43607;DHT22;29197;44.788;10.366;2022-11-20T21:42:37;9.40;99.90
43607;DHT22;29197;44.788;10.366;2022-11-20T21:45:28;9.50;99.90
43607;DHT22;29197;44.788;10.366;2022-11-20T21:48:17;9.60;99.90
43607;DHT22;29197;44.788;10.366;2022-11-20T21:51:08;9.50;99.90
43607;DHT22;29197;44.788;10.366;2022-11-20T21:53:57;9.60;99.90
43607;DHT22;29197;44.788;10.366;2022-11-20T21:56:47;9.30;99.90
43607;DHT22;29197;44.788;10.366;2022-11-20T21:59:36;9.10;99.90
43607;DHT22;29197;44.788;10.366;2022-11-20T22:02:26;9.00;99.90
43607;DHT22;29197;44.788;10.366;2022-11-20T22:05:15;9.20;99.90
43607;DHT22;29197;44.788;10.366;2022-11-20T22:08:06;9.30;99.90
43607;DHT22;29197;44.788;10.366;2022-11-20T22:10:56;9.30;99.90
43607;DHT22;29197;44.788;10.366;2022-11-20T22:13:45;9.50;99.90
43607;DHT22;29197;44.788;10.366;2022-11-20T22:16:53;9.60;99.90
43607;DHT22;29197;44.788;10.366;2022-11-20T22:19:43;9.70;99.90
43607;DHT22;29197;44.788;10.366;2022-11-20T22:22:33;9.80;99.90
43607;DHT22;29197;44.788;10.366;2022-11-20T22:25:22;9.90;99.90
43607;DHT22;29197;44.788;10.366;2022-11-20T22:28:11;10.00;99.90
43607;DHT22;29197;44.788;10.366;2022-11-20T22:31:02;10.00;99.90
43607;DHT22;29197;44.788;10.366;2022-11-20T22:33:52;10.00;99.90
43607;DHT22;29197;44.788;10.366;2022-11-20T22:36:43;10.10;99.90
43607;DHT22;29197;44.788;10.366;2022-11-20T22:39:32;9.90;99.90
43607;DHT22;29197;44.788;10.366;2022-11-20T22:42:21;9.80;99.90
43607;DHT22;29197;44.788;10.366;2022-11-20T22:45:11;9.70;99.90
43607;DHT22;29197;44.788;10.366;2022-11-20T22:48:00;9.70;99.90
43607;DHT22;29197;44.788;10.366;2022-11-20T22:50:50;9.80;99.90
43607;DHT22;29197;44.788;10.366;2022-11-20T22:53:41;9.80;99.90
43607;DHT22;29197;44.788;10.366;2022-11-20T22:56:31;9.80;99.90
43607;DHT22;29197;44.788;10.366;2022-11-20T22:59:21;9.80;99.90
43607;DHT22;29197;44.788;10.366;2022-11-20T23:02:10;9.80;99.90
43607;DHT22;29197;44.788;10.366;2022-11-20T23:05:00;9.60;99.90
43607;DHT22;29197;44.788;10.366;2022-11-20T23:07:49;9.50;99.90
43607;DHT22;29197;44.788;10.366;2022-11-20T23:10:40;9.50;99.90
43607;DHT22;29197;44.788;10.366;2022-11-20T23:13:29;9.60;99.90
43607;DHT22;29197;44.788;10.366;2022-11-20T23:16:19;9.60;99.90
43607;DHT22;29197;44.788;10.366;2022-11-20T23:19:11;9.70;99.90
43607;DHT22;29197;44.788;10.366;2022-11-20T23:22:00;9.60;99.90
43607;DHT22;29197;44.788;10.366;2022-11-20T23:24:50;9.30;99.90
43607;DHT22;29197;44.788;10.366;2022-11-20T23:27:41;9.30;99.90
43607;DHT22;29197;44.788;10.366;2022-11-20T23:30:32;9.40;99.90
43607;DHT22;29197;44.788;10.366;2022-11-20T23:33:21;9.30;99.90
43607;DHT22;29197;44.788;10.366;2022-11-20T23:36:11;9.10;99.90
43607;DHT22;29197;44.788;10.366;2022-11-20T23:39:00;8.80;99.90
43607;DHT22;29197;44.788;10.366;2022-11-20T23:41:50;8.70;99.90
43607;DHT22;29197;44.788;10.366;2022-11-20T23:44:40;8.90;99.90
43607;DHT22;29197;44.788;10.366;2022-11-20T23:47:30;8.70;99.90
43607;DHT22;29197;44.788;10.366;2022-11-20T23:50:20;8.60;99.90
43607;DHT22;29197;44.788;10.366;2022-11-20T23:53:10;8.60;99.90
43607;DHT22;29197;44.788;10.366;2022-11-20T23:56:01;8.70;99.90
43607;DHT22;29197;44.788;10.366;2022-11-20T23:58:51;8.80;99.90
